Time;durP1;ratioP1;P1;durP2;ratioP2;P2;SDS_P1;SDS_P2;PMS_P1;PMS_P2;Temp;Humidity;BMP_temperature;BMP_pressure;BME280_temperature;BME280_humidity;BME280_pressure;Samples;Min_cycle;Max_cycle;Signal;HPM_P1;HPM_P2
2022/10/31 00:01:42;;;;;;;47.42;25.48;;;;;;;;;;5062600;28;20029;-78
2022/10/31 00:04:08;;;;;;;49.40;24.42;;;;;;;;;;5061825;28;20033;-78
2022/10/31 00:06:34;;;;;;;46.83;24.35;;;;;;;;;;5070359;28;20061;-77
2022/10/31 00:09:01;;;;;;;46.97;24.23;;;;;;;;;;5053187;28;20009;-77
2022/10/31 00:11:27;;;;;;;44.25;22.88;;;;;;;;;;5075991;28;20029;-78
2022/10/31 00:13:53;;;;;;;43.53;24.25;;;;;;;;;;5064167;28;20040;-77
2022/10/31 00:16:21;;;;;;;47.60;24.70;;;;;;;;;;5068892;28;20033;-76
2022/10/31 00:18:50;;;;;;;42.00;22.67;;;;;;;;;;5050310;28;20056;-77
2022/10/31 00:21:17;;;;;;;46.63;23.70;;;;;;;;;;5070564;28;20085;-78
2022/10/31 00:23:43;;;;;;;46.22;23.67;;;;;;;;;;5070389;28;20028;-77
2022/10/31 00:26:08;;;;;;;46.75;24.73;;;;;;;;;;5068982;28;20030;-77
2022/10/31 00:28:34;;;;;;;48.72;23.85;;;;;;;;;;5066385;28;20047;-77
2022/10/31 00:31:01;;;;;;;54.08;26.08;;;;;;;;;;5048419;28;20515;-79
2022/10/31 00:33:27;;;;;;;46.40;24.30;;;;;;;;;;5066136;28;20009;-77
2022/10/31 00:35:53;;;;;;;49.35;24.67;;;;;;;;;;5068338;28;20053;-78
2022/10/31 00:38:19;;;;;;;45.75;24.08;;;;;;;;;;5066083;28;20021;-76
2022/10/31 00:40:45;;;;;;;46.42;25.88;;;;;;;;;;5066961;28;20030;-77
2022/10/31 00:43:11;;;;;;;49.25;26.38;;;;;;;;;;5067553;28;20450;-77
2022/10/31 00:45:37;;;;;;;49.03;25.60;;;;;;;;;;5068082;28;20088;-77
2022/10/31 00:48:03;;;;;;;50.35;26.13;;;;;;;;;;5067407;28;20380;-76
2022/10/31 00:50:29;;;;;;;45.05;25.02;;;;;;;;;;5053579;28;20029;-80
2022/10/31 00:52:55;;;;;;;40.42;23.83;;;;;;;;;;5071398;28;20107;-77
2022/10/31 00:55:21;;;;;;;46.03;23.10;;;;;;;;;;5070459;28;20107;-77
2022/10/31 00:57:47;;;;;;;43.90;24.13;;;;;;;;;;5066312;28;20022;-77
2022/10/31 01:00:13;;;;;;;54.15;24.10;;;;;;;;;;5060750;28;20029;-78
2022/10/31 01:02:39;;;;;;;41.80;23.13;;;;;;;;;;5059224;28;20044;-78
2022/10/31 01:05:05;;;;;;;43.10;23.70;;;;;;;;;;5060078;28;20501;-77
2022/10/31 01:07:31;;;;;;;50.00;24.50;;;;;;;;;;5042220;28;20029;-77
2022/10/31 01:09:57;;;;;;;47.08;23.95;;;;;;;;;;5058837;28;20077;-77
2022/10/31 01:12:23;;;;;;;53.08;24.33;;;;;;;;;;5057610;28;20362;-76
2022/10/31 01:14:49;;;;;;;44.55;23.60;;;;;;;;;;5039408;28;20117;-76
2022/10/31 01:17:15;;;;;;;47.53;24.15;;;;;;;;;;5056890;28;20033;-78
2022/10/31 01:19:41;;;;;;;41.20;23.23;;;;;;;;;;5094993;22;20058;-75
2022/10/31 01:22:07;;;;;;;47.35;22.63;;;;;;;;;;5074818;28;20080;-74
2022/10/31 01:24:33;;;;;;;48.35;22.98;;;;;;;;;;5073909;28;20477;-73
2022/10/31 01:26:59;;;;;;;38.35;21.92;;;;;;;;;;5077772;28;20060;-72
2022/10/31 01:29:25;;;;;;;45.40;22.98;;;;;;;;;;5086228;28;20029;-75
2022/10/31 01:31:51;;;;;;;49.28;23.02;;;;;;;;;;5084793;28;20032;-73
2022/10/31 01:34:17;;;;;;;43.92;22.38;;;;;;;;;;5085261;28;20511;-74
2022/10/31 01:36:44;;;;;;;47.25;24.77;;;;;;;;;;5075600;28;20029;-75
2022/10/31 01:39:15;;;;;;;54.25;25.92;;;;;;;;;;5073853;28;20024;-76
2022/10/31 01:41:42;;;;;;;46.40;22.90;;;;;;;;;;5073638;28;20427;-74
2022/10/31 01:44:14;;;;;;;43.83;24.58;;;;;;;;;;5072481;28;20043;-77
2022/10/31 01:46:49;;;;;;;53.70;24.27;;;;;;;;;;5073593;28;20059;-74
2022/10/31 01:49:24;;;;;;;48.10;25.20;;;;;;;;;;5074546;28;20044;-75
2022/10/31 01:51:57;;;;;;;64.32;28.58;;;;;;;;;;5075618;28;20385;-75
2022/10/31 01:54:24;;;;;;;71.65;29.42;;;;;;;;;;5073433;28;20056;-73
2022/10/31 01:56:53;;;;;;;54.42;29.17;;;;;;;;;;5073805;28;20032;-77
2022/10/31 01:59:21;;;;;;;52.90;29.95;;;;;;;;;;5074875;28;20033;-74
2022/10/31 02:01:48;;;;;;;60.70;29.63;;;;;;;;;;5075495;28;20056;-75
2022/10/31 02:04:14;;;;;;;65.55;31.48;;;;;;;;;;5073096;28;20029;-74
2022/10/31 02:06:55;;;;;;;55.72;29.50;;;;;;;;;;5072824;28;20397;-73
2022/10/31 02:09:23;;;;;;;58.75;27.98;;;;;;;;;;5073189;28;20025;-73
2022/10/31 02:11:51;;;;;;;46.83;25.50;;;;;;;;;;5073216;28;20445;-74
2022/10/31 02:14:17;;;;;;;45.25;25.98;;;;;;;;;;5072249;28;20036;-73
2022/10/31 02:16:43;;;;;;;59.92;27.10;;;;;;;;;;5075782;28;20032;-74
2022/10/31 02:19:12;;;;;;;56.33;28.33;;;;;;;;;;5077645;28;20032;-73
2022/10/31 02:21:54;;;;;;;53.65;27.88;;;;;;;;;;5080172;28;20098;-74
2022/10/31 02:24:23;;;;;;;53.28;27.42;;;;;;;;;;5078050;28;20028;-73
2022/10/31 02:27:11;;;;;;;58.88;26.65;;;;;;;;;;5078444;28;20025;-74
2022/10/31 02:29:43;;;;;;;51.47;24.80;;;;;;;;;;5079049;28;20028;-74
2022/10/31 02:32:19;;;;;;;48.72;24.60;;;;;;;;;;5077218;28;20469;-73
2022/10/31 02:34:48;;;;;;;48.65;23.58;;;;;;;;;;5076860;28;20025;-74
2022/10/31 02:37:14;;;;;;;44.55;23.88;;;;;;;;;;5072566;28;20563;-74
2022/10/31 02:39:55;;;;;;;74.18;32.50;;;;;;;;;;5072623;28;20028;-74
2022/10/31 02:42:21;;;;;;;62.38;29.33;;;;;;;;;;5073048;28;20024;-74
2022/10/31 02:44:56;;;;;;;63.58;29.25;;;;;;;;;;5073380;28;20039;-74
2022/10/31 02:47:30;;;;;;;63.00;28.90;;;;;;;;;;5072642;28;20343;-74
2022/10/31 02:50:01;;;;;;;53.93;27.37;;;;;;;;;;5073235;28;20435;-75
2022/10/31 02:52:29;;;;;;;53.10;28.15;;;;;;;;;;5073048;28;20786;-74
2022/10/31 02:54:55;;;;;;;63.13;30.40;;;;;;;;;;5072151;28;20028;-73
2022/10/31 02:57:25;;;;;;;62.47;31.42;;;;;;;;;;5073755;28;20035;-74
2022/10/31 02:59:53;;;;;;;57.58;29.60;;;;;;;;;;5073312;28;20035;-74
2022/10/31 03:02:31;;;;;;;66.60;31.10;;;;;;;;;;5076808;28;20099;-74
2022/10/31 03:05:05;;;;;;;60.78;32.25;;;;;;;;;;5080057;28;20157;-75
2022/10/31 03:07:37;;;;;;;74.57;32.97;;;;;;;;;;5078295;28;20024;-73
2022/10/31 03:10:06;;;;;;;69.15;32.85;;;;;;;;;;5079871;28;20028;-73
2022/10/31 03:12:33;;;;;;;65.88;32.35;;;;;;;;;;5081385;28;20035;-74
2022/10/31 03:15:04;;;;;;;76.13;35.97;;;;;;;;;;5081404;28;20042;-74
2022/10/31 03:17:38;;;;;;;83.05;37.53;;;;;;;;;;5081415;28;20025;-74
2022/10/31 03:20:05;;;;;;;65.43;33.75;;;;;;;;;;5079428;28;20098;-74
2022/10/31 03:22:32;;;;;;;70.03;35.95;;;;;;;;;;5080433;28;20031;-73
2022/10/31 03:25:00;;;;;;;66.65;32.08;;;;;;;;;;5081650;28;20101;-75
2022/10/31 03:27:28;;;;;;;82.85;36.65;;;;;;;;;;5080942;28;20029;-75
2022/10/31 03:29:56;;;;;;;73.88;35.72;;;;;;;;;;5079464;28;20055;-75
2022/10/31 03:32:25;;;;;;;80.25;37.80;;;;;;;;;;5075797;28;20035;-73
2022/10/31 03:34:51;;;;;;;73.53;35.65;;;;;;;;;;5078321;28;20032;-75
2022/10/31 03:37:19;;;;;;;71.32;37.53;;;;;;;;;;5078746;28;20108;-74
2022/10/31 03:39:46;;;;;;;91.38;37.25;;;;;;;;;;5076862;28;20048;-73
2022/10/31 03:42:16;;;;;;;88.32;39.08;;;;;;;;;;5077639;28;20032;-74
2022/10/31 03:44:44;;;;;;;83.70;37.88;;;;;;;;;;5077384;28;20546;-75
2022/10/31 03:47:10;;;;;;;79.30;35.72;;;;;;;;;;5080355;28;20025;-75
2022/10/31 03:49:37;;;;;;;76.55;35.30;;;;;;;;;;5076602;28;20028;-74
2022/10/31 03:52:06;;;;;;;87.10;39.10;;;;;;;;;;5076396;28;20029;-74
2022/10/31 03:54:36;;;;;;;72.05;35.53;;;;;;;;;;5076125;28;20028;-73
2022/10/31 03:57:12;;;;;;;81.05;37.75;;;;;;;;;;5076446;28;20029;-74
2022/10/31 03:59:51;;;;;;;76.97;36.85;;;;;;;;;;5081736;28;20047;-75
2022/10/31 04:02:18;;;;;;;77.28;37.88;;;;;;;;;;5082462;28;20048;-73
2022/10/31 04:04:45;;;;;;;84.60;38.65;;;;;;;;;;5080696;28;20054;-73
2022/10/31 04:07:11;;;;;;;83.88;37.35;;;;;;;;;;5082138;28;20027;-72
2022/10/31 04:09:39;;;;;;;75.50;37.70;;;;;;;;;;5079101;28;20020;-74
2022/10/31 04:12:08;;;;;;;80.00;37.90;;;;;;;;;;5076110;28;20024;-73
2022/10/31 04:14:35;;;;;;;81.68;39.50;;;;;;;;;;5075556;28;20063;-75
2022/10/31 04:17:02;;;;;;;88.95;38.88;;;;;;;;;;5075834;28;20025;-74
2022/10/31 04:19:28;;;;;;;80.20;37.22;;;;;;;;;;5075795;28;20424;-74
2022/10/31 04:21:54;;;;;;;84.93;41.38;;;;;;;;;;5075684;28;20024;-75
2022/10/31 04:24:20;;;;;;;74.20;37.42;;;;;;;;;;5075996;28;20182;-74
2022/10/31 04:26:46;;;;;;;73.80;39.38;;;;;;;;;;5075465;28;20040;-74
2022/10/31 04:29:12;;;;;;;85.75;37.72;;;;;;;;;;5077056;28;20025;-73
2022/10/31 04:31:38;;;;;;;80.90;39.13;;;;;;;;;;5080951;28;20047;-73
2022/10/31 04:34:04;;;;;;;84.30;39.95;;;;;;;;;;5081647;28;20052;-75
2022/10/31 04:36:30;;;;;;;76.55;38.15;;;;;;;;;;5075374;28;20481;-74
2022/10/31 04:38:56;;;;;;;94.47;39.85;;;;;;;;;;5075172;28;20028;-75
2022/10/31 04:41:22;;;;;;;84.70;38.47;;;;;;;;;;5075191;28;20036;-74
2022/10/31 04:43:48;;;;;;;76.68;38.35;;;;;;;;;;5075172;28;20111;-72
2022/10/31 04:46:14;;;;;;;86.05;39.88;;;;;;;;;;5079288;28;20024;-74
2022/10/31 04:48:40;;;;;;;79.53;39.42;;;;;;;;;;5075382;28;20039;-73
2022/10/31 04:51:06;;;;;;;88.70;40.03;;;;;;;;;;5073798;28;20475;-74
2022/10/31 04:53:32;;;;;;;79.32;39.42;;;;;;;;;;5078412;28;20029;-73
2022/10/31 04:56:01;;;;;;;86.50;42.80;;;;;;;;;;5073282;28;20028;-73
2022/10/31 04:58:27;;;;;;;145.00;44.80;;;;;;;;;;5074944;28;20052;-74
2022/10/31 05:00:54;;;;;;;88.72;43.70;;;;;;;;;;5075730;28;20024;-74
2022/10/31 05:03:20;;;;;;;85.70;41.40;;;;;;;;;;5077340;28;20027;-73
2022/10/31 05:05:46;;;;;;;82.03;40.53;;;;;;;;;;5074989;28;20024;-75
2022/10/31 05:08:12;;;;;;;84.93;41.92;;;;;;;;;;5076329;28;20020;-73
2022/10/31 05:10:38;;;;;;;86.03;42.85;;;;;;;;;;5076458;28;20032;-73
2022/10/31 05:13:04;;;;;;;85.25;43.85;;;;;;;;;;5074812;28;20016;-74
2022/10/31 05:15:31;;;;;;;82.00;41.60;;;;;;;;;;5073836;28;20070;-73
2022/10/31 05:17:57;;;;;;;85.78;42.75;;;;;;;;;;5072526;28;20055;-74
2022/10/31 05:20:24;;;;;;;89.07;40.92;;;;;;;;;;5074160;28;20032;-74
2022/10/31 05:22:51;;;;;;;91.53;41.75;;;;;;;;;;5074069;28;20104;-73
2022/10/31 05:25:17;;;;;;;79.38;39.97;;;;;;;;;;5071762;28;20025;-74
2022/10/31 05:27:45;;;;;;;82.45;40.50;;;;;;;;;;5073559;28;20381;-73
2022/10/31 05:30:12;;;;;;;76.97;41.35;;;;;;;;;;5074463;28;20052;-73
2022/10/31 05:32:42;;;;;;;84.85;42.70;;;;;;;;;;5074206;28;20536;-74
2022/10/31 05:35:08;;;;;;;84.55;42.13;;;;;;;;;;5073382;28;20032;-74
2022/10/31 05:37:35;;;;;;;89.47;42.60;;;;;;;;;;5076318;28;20440;-72
2022/10/31 05:40:02;;;;;;;85.63;42.08;;;;;;;;;;5080468;28;20104;-73
2022/10/31 05:42:28;;;;;;;87.60;43.10;;;;;;;;;;5081289;28;20533;-73
2022/10/31 05:44:54;;;;;;;115.60;44.60;;;;;;;;;;5078690;28;20059;-74
2022/10/31 05:47:20;;;;;;;92.93;44.22;;;;;;;;;;5079182;28;20031;-74
2022/10/31 05:49:46;;;;;;;80.80;40.00;;;;;;;;;;5080763;28;20028;-74
2022/10/31 05:52:12;;;;;;;85.07;41.22;;;;;;;;;;5080007;28;20028;-75
2022/10/31 05:54:37;;;;;;;89.93;41.80;;;;;;;;;;5074963;28;20155;-74
2022/10/31 05:57:03;;;;;;;90.22;44.53;;;;;;;;;;5073774;28;20024;-74
2022/10/31 05:59:29;;;;;;;85.35;42.22;;;;;;;;;;5074323;28;20028;-74
2022/10/31 06:01:55;;;;;;;82.70;42.92;;;;;;;;;;5082579;28;20107;-72
2022/10/31 06:04:21;;;;;;;87.65;42.00;;;;;;;;;;5083059;28;20036;-73
2022/10/31 06:06:47;;;;;;;91.18;44.42;;;;;;;;;;5079341;28;20056;-74
2022/10/31 06:09:13;;;;;;;84.68;42.05;;;;;;;;;;5078315;28;20028;-73
2022/10/31 06:11:39;;;;;;;92.25;42.65;;;;;;;;;;5077538;28;20035;-72
2022/10/31 06:14:05;;;;;;;151.32;44.22;;;;;;;;;;5074787;28;20078;-73
2022/10/31 06:16:32;;;;;;;77.35;40.65;;;;;;;;;;5074973;28;20048;-75
2022/10/31 06:18:59;;;;;;;83.88;42.17;;;;;;;;;;5074500;28;20424;-74
2022/10/31 06:21:25;;;;;;;91.07;40.33;;;;;;;;;;5074835;28;20095;-74
2022/10/31 06:23:51;;;;;;;96.53;40.65;;;;;;;;;;5073619;28;20035;-75
2022/10/31 06:26:17;;;;;;;85.32;41.88;;;;;;;;;;5073874;28;20050;-74
2022/10/31 06:28:43;;;;;;;81.03;42.50;;;;;;;;;;5079354;28;20048;-74
2022/10/31 06:31:09;;;;;;;75.20;39.53;;;;;;;;;;5080243;28;20025;-74
2022/10/31 06:33:35;;;;;;;71.05;37.92;;;;;;;;;;5081029;28;20078;-75
2022/10/31 06:36:01;;;;;;;70.90;38.45;;;;;;;;;;5082713;28;20103;-72
2022/10/31 06:38:27;;;;;;;67.22;37.85;;;;;;;;;;5082318;28;20036;-75
2022/10/31 06:40:54;;;;;;;72.88;37.45;;;;;;;;;;5071836;28;20070;-75
2022/10/31 06:43:20;;;;;;;67.10;37.60;;;;;;;;;;5072965;28;20037;-75
2022/10/31 06:45:46;;;;;;;73.35;39.58;;;;;;;;;;5072929;28;20024;-74
2022/10/31 06:48:12;;;;;;;73.55;39.90;;;;;;;;;;5072779;28;20029;-74
2022/10/31 06:50:38;;;;;;;69.82;38.35;;;;;;;;;;5072598;28;20096;-76
2022/10/31 06:53:04;;;;;;;69.78;39.15;;;;;;;;;;5072904;28;20099;-72
2022/10/31 06:55:30;;;;;;;76.22;39.85;;;;;;;;;;5073154;28;20027;-73
2022/10/31 06:57:58;;;;;;;68.47;38.88;;;;;;;;;;5073313;28;20043;-73
2022/10/31 07:00:25;;;;;;;73.55;37.83;;;;;;;;;;5073307;28;20029;-74
2022/10/31 07:03:04;;;;;;;84.72;38.95;;;;;;;;;;5071830;28;20052;-75
2022/10/31 07:05:31;;;;;;;138.55;38.30;;;;;;;;;;5077334;28;20024;-75
2022/10/31 07:07:58;;;;;;;71.13;36.58;;;;;;;;;;5077002;28;20021;-73
2022/10/31 07:10:25;;;;;;;69.65;37.50;;;;;;;;;;5073239;28;20468;-74
2022/10/31 07:13:02;;;;;;;69.10;37.40;;;;;;;;;;5073817;28;20017;-76
2022/10/31 07:15:29;;;;;;;68.95;39.92;;;;;;;;;;5073588;28;20543;-75
2022/10/31 07:18:00;;;;;;;73.90;40.40;;;;;;;;;;5074104;28;20051;-73
2022/10/31 07:20:26;;;;;;;67.10;36.38;;;;;;;;;;5079040;22;20048;-76
2022/10/31 07:22:52;;;;;;;71.93;37.17;;;;;;;;;;5052764;28;20029;-77
2022/10/31 07:25:18;;;;;;;57.70;34.10;;;;;;;;;;5034366;28;20040;-77
2022/10/31 07:27:44;;;;;;;58.80;32.67;;;;;;;;;;5053693;28;20040;-76
2022/10/31 07:30:11;;;;;;;61.85;34.60;;;;;;;;;;5036289;28;20033;-77
2022/10/31 07:32:40;;;;;;;62.35;33.65;;;;;;;;;;5054525;28;20163;-78
2022/10/31 07:35:06;;;;;;;88.22;33.95;;;;;;;;;;5056805;28;20032;-76
2022/10/31 07:37:32;;;;;;;54.20;31.88;;;;;;;;;;5064212;28;20032;-77
2022/10/31 07:39:58;;;;;;;60.50;30.23;;;;;;;;;;5065232;28;20025;-76
2022/10/31 07:42:24;;;;;;;58.67;27.10;;;;;;;;;;5063698;28;20029;-77
2022/10/31 07:44:50;;;;;;;48.53;26.40;;;;;;;;;;5063867;28;20485;-76
2022/10/31 07:47:16;;;;;;;54.65;27.30;;;;;;;;;;5063029;28;20052;-76
2022/10/31 07:49:42;;;;;;;53.47;27.02;;;;;;;;;;5068196;28;20051;-77
2022/10/31 07:52:08;;;;;;;54.08;27.50;;;;;;;;;;5068465;28;20025;-76
2022/10/31 07:54:34;;;;;;;51.92;25.80;;;;;;;;;;5059776;28;20536;-76
2022/10/31 07:57:00;;;;;;;52.92;26.30;;;;;;;;;;5042209;28;20024;-76
2022/10/31 07:59:27;;;;;;;48.60;25.38;;;;;;;;;;5059400;28;20094;-76
2022/10/31 08:01:53;;;;;;;41.45;24.60;;;;;;;;;;5057618;28;20103;-77
2022/10/31 08:04:19;;;;;;;42.67;23.98;;;;;;;;;;5057168;28;20086;-77
2022/10/31 08:06:45;;;;;;;39.67;24.48;;;;;;;;;;5039113;28;20120;-76
2022/10/31 08:09:11;;;;;;;104.38;27.92;;;;;;;;;;5057360;28;20021;-78
2022/10/31 08:11:37;;;;;;;39.55;25.40;;;;;;;;;;5057150;28;20230;-78
2022/10/31 08:14:03;;;;;;;47.72;26.70;;;;;;;;;;5057456;28;20024;-77
2022/10/31 08:16:28;;;;;;;48.08;25.63;;;;;;;;;;5057839;28;20071;-77
2022/10/31 08:18:55;;;;;;;45.35;24.77;;;;;;;;;;5059556;28;20029;-77
2022/10/31 08:21:21;;;;;;;43.05;25.67;;;;;;;;;;5066642;28;20025;-78
2022/10/31 08:23:47;;;;;;;40.33;23.77;;;;;;;;;;5073573;28;20032;-76
2022/10/31 08:26:13;;;;;;;46.88;25.20;;;;;;;;;;5077919;28;20093;-77
2022/10/31 08:28:39;;;;;;;47.13;24.17;;;;;;;;;;5074713;28;20029;-77
2022/10/31 08:31:05;;;;;;;42.25;25.08;;;;;;;;;;5077040;28;20046;-76
2022/10/31 08:33:32;;;;;;;40.45;24.40;;;;;;;;;;5078687;28;20039;-78
2022/10/31 08:36:01;;;;;;;38.55;22.35;;;;;;;;;;5059137;28;20057;-79
2022/10/31 08:38:27;;;;;;;40.10;22.98;;;;;;;;;;5039292;28;20025;-77
2022/10/31 08:40:53;;;;;;;37.83;21.83;;;;;;;;;;5039144;28;20052;-78
2022/10/31 08:43:19;;;;;;;36.47;21.30;;;;;;;;;;5057457;28;20025;-76
2022/10/31 08:45:47;;;;;;;30.80;20.70;;;;;;;;;;5057178;28;20393;-78
2022/10/31 08:48:14;;;;;;;37.55;20.63;;;;;;;;;;5059214;28;20032;-77
2022/10/31 08:50:41;;;;;;;30.15;19.50;;;;;;;;;;5041423;28;20029;-78
2022/10/31 08:53:08;;;;;;;33.00;21.35;;;;;;;;;;5057802;28;20032;-79
2022/10/31 08:55:35;;;;;;;55.80;22.25;;;;;;;;;;5040644;28;20519;-77
2022/10/31 08:58:01;;;;;;;38.30;22.40;;;;;;;;;;5059421;28;20024;-78
2022/10/31 09:00:27;;;;;;;35.92;20.98;;;;;;;;;;5056598;28;20095;-77
2022/10/31 09:02:57;;;;;;;40.17;20.90;;;;;;;;;;5043818;28;20029;-78
2022/10/31 09:05:23;;;;;;;32.40;19.15;;;;;;;;;;5062989;28;20185;-77
2022/10/31 09:07:49;;;;;;;31.98;18.73;;;;;;;;;;5065367;28;20493;-77
2022/10/31 09:10:15;;;;;;;31.70;17.70;;;;;;;;;;5064571;28;20036;-78
2022/10/31 09:12:41;;;;;;;32.38;18.40;;;;;;;;;;5046307;28;20481;-76
2022/10/31 09:15:07;;;;;;;31.33;18.90;;;;;;;;;;5065311;28;20033;-78
2022/10/31 09:17:33;;;;;;;29.60;18.48;;;;;;;;;;5049912;28;20108;-77
2022/10/31 09:19:59;;;;;;;34.53;19.67;;;;;;;;;;5054808;28;20025;-76
2022/10/31 09:22:25;;;;;;;33.63;19.08;;;;;;;;;;5064541;28;20036;-77
2022/10/31 09:24:51;;;;;;;34.38;19.83;;;;;;;;;;5050188;28;20084;-79
2022/10/31 09:27:17;;;;;;;39.35;23.55;;;;;;;;;;5062819;28;20037;-78
2022/10/31 09:29:43;;;;;;;38.08;21.33;;;;;;;;;;5064376;28;20081;-77
2022/10/31 09:32:09;;;;;;;38.35;22.20;;;;;;;;;;5065449;28;20044;-77
2022/10/31 09:34:35;;;;;;;43.13;21.70;;;;;;;;;;5065374;28;20051;-78
2022/10/31 09:37:01;;;;;;;37.33;21.90;;;;;;;;;;5046524;28;20393;-78
2022/10/31 09:39:27;;;;;;;38.72;20.65;;;;;;;;;;5056630;28;20039;-78
2022/10/31 09:42:09;;;;;;;32.88;20.52;;;;;;;;;;5061603;28;20029;-78
2022/10/31 09:44:41;;;;;;;40.40;20.73;;;;;;;;;;5056764;28;20029;-77
2022/10/31 09:47:15;;;;;;;35.70;19.25;;;;;;;;;;5041102;28;20029;-78
2022/10/31 09:49:59;;;;;;;43.60;19.80;;;;;;;;;;5067163;28;20465;-78
2022/10/31 09:52:28;;;;;;;32.97;16.17;;;;;;;;;;5065605;28;20021;-77
2022/10/31 09:54:57;;;;;;;29.45;15.85;;;;;;;;;;5060682;28;20028;-79
2022/10/31 09:57:26;;;;;;;30.83;16.17;;;;;;;;;;5056853;28;20025;-78
2022/10/31 09:59:52;;;;;;;37.22;16.10;;;;;;;;;;5056019;28;20037;-78
2022/10/31 10:02:24;;;;;;;33.63;16.88;;;;;;;;;;5055675;28;20036;-77
2022/10/31 10:04:49;;;;;;;33.20;17.55;;;;;;;;;;5038865;28;20021;-79
2022/10/31 10:07:34;;;;;;;38.40;17.13;;;;;;;;;;5054787;28;20032;-76
2022/10/31 10:10:01;;;;;;;34.38;16.90;;;;;;;;;;5055410;28;20051;-77
2022/10/31 10:12:40;;;;;;;33.22;16.40;;;;;;;;;;5055039;28;20029;-78
2022/10/31 10:15:17;;;;;;;38.30;18.25;;;;;;;;;;5056552;28;20032;-78
2022/10/31 10:17:50;;;;;;;39.75;18.88;;;;;;;;;;5057730;28;20457;-77
2022/10/31 10:20:21;;;;;;;34.83;16.42;;;;;;;;;;5059744;28;20033;-78
2022/10/31 10:22:50;;;;;;;36.05;17.48;;;;;;;;;;5055980;28;20021;-79
2022/10/31 10:25:20;;;;;;;39.42;17.83;;;;;;;;;;5058239;28;20025;-78
2022/10/31 10:27:49;;;;;;;36.30;18.48;;;;;;;;;;5059737;28;20359;-77
2022/10/31 10:30:20;;;;;;;41.08;20.75;;;;;;;;;;5057418;28;20029;-77
2022/10/31 10:32:55;;;;;;;34.80;18.25;;;;;;;;;;5054929;28;20024;-78
2022/10/31 10:35:21;;;;;;;32.45;16.60;;;;;;;;;;5035791;28;20493;-78
2022/10/31 10:37:49;;;;;;;31.95;17.48;;;;;;;;;;5053786;28;20067;-77
2022/10/31 10:40:23;;;;;;;38.00;18.73;;;;;;;;;;5055659;28;20068;-76
2022/10/31 10:43:23;;;;;;;32.70;17.30;;;;;;;;;;5058051;28;20100;-79
2022/10/31 10:49:05;;;;;;;35.85;19.48;;;;;;;;;;5068734;28;20053;-78
2022/10/31 10:51:46;;;;;;;41.17;19.20;;;;;;;;;;5051198;28;20063;-77
2022/10/31 10:54:13;;;;;;;46.03;21.05;;;;;;;;;;5063954;28;20025;-79
2022/10/31 10:56:39;;;;;;;41.58;20.33;;;;;;;;;;5055598;28;20021;-78
2022/10/31 10:59:08;;;;;;;37.88;19.52;;;;;;;;;;5055219;28;20044;-77
2022/10/31 11:01:34;;;;;;;37.15;19.48;;;;;;;;;;5054165;28;20024;-78
2022/10/31 11:04:04;;;;;;;37.97;19.33;;;;;;;;;;5052310;28;20441;-77
2022/10/31 11:06:30;;;;;;;34.83;17.70;;;;;;;;;;5052705;28;20017;-77
2022/10/31 11:08:56;;;;;;;38.10;18.42;;;;;;;;;;5052795;28;20110;-77
2022/10/31 11:11:30;;;;;;;41.65;20.05;;;;;;;;;;5053874;28;20108;-77
2022/10/31 11:13:56;;;;;;;;;;;;;;;;;;5053510;28;20029;-79
2022/10/31 11:16:42;;;;;;;35.15;17.98;;;;;;;;;;5036136;28;19911;-77
2022/10/31 11:19:28;;;;;;;38.10;20.48;;;;;;;;;;5036023;28;20086;-76
2022/10/31 11:21:54;;;;;;;37.28;19.33;;;;;;;;;;5054652;28;20055;-77
2022/10/31 11:24:22;;;;;;;37.88;19.23;;;;;;;;;;5056054;28;20102;-77
2022/10/31 11:26:49;;;;;;;41.90;22.23;;;;;;;;;;5057455;28;20021;-78
2022/10/31 11:29:17;;;;;;;36.40;19.52;;;;;;;;;;5058128;28;20021;-78
2022/10/31 11:31:44;;;;;;;35.92;20.42;;;;;;;;;;5058005;28;20113;-78
2022/10/31 11:34:30;;;;;;;40.45;21.40;;;;;;;;;;5057553;28;20033;-76
2022/10/31 11:37:01;;;;;;;34.75;17.65;;;;;;;;;;5058573;28;20020;-76
2022/10/31 11:39:27;;;;;;;33.33;16.60;;;;;;;;;;5040263;28;20040;-78
2022/10/31 11:41:54;;;;;;;32.78;16.92;;;;;;;;;;5057985;28;20486;-77
2022/10/31 11:44:27;;;;;;;36.15;17.40;;;;;;;;;;5039800;28;20466;-77
2022/10/31 11:46:55;;;;;;;28.77;15.35;;;;;;;;;;5059037;28;20033;-77
2022/10/31 11:49:29;;;;;;;29.67;14.35;;;;;;;;;;5039201;28;20036;-77
2022/10/31 11:51:57;;;;;;;27.05;13.82;;;;;;;;;;5057836;28;20056;-78
2022/10/31 11:54:26;;;;;;;30.70;14.10;;;;;;;;;;5039685;28;20036;-78
2022/10/31 11:56:52;;;;;;;29.55;13.48;;;;;;;;;;5057815;28;20092;-77
2022/10/31 11:59:28;;;;;;;23.10;12.55;;;;;;;;;;5056474;28;20033;-78
2022/10/31 12:01:55;;;;;;;24.55;12.07;;;;;;;;;;5057412;28;20393;-77
2022/10/31 12:04:33;;;;;;;25.70;12.52;;;;;;;;;;5039752;28;20029;-79
2022/10/31 12:06:59;;;;;;;24.83;10.85;;;;;;;;;;5058811;28;20100;-78
2022/10/31 12:09:30;;;;;;;24.10;12.23;;;;;;;;;;5057544;28;20017;-76
2022/10/31 12:12:14;;;;;;;24.67;10.68;;;;;;;;;;5058572;28;20422;-78
2022/10/31 12:14:49;;;;;;;18.10;9.90;;;;;;;;;;5065170;28;20501;-78
2022/10/31 12:17:24;;;;;;;21.30;9.70;;;;;;;;;;5066336;28;20056;-78
2022/10/31 12:20:05;;;;;;;24.55;11.68;;;;;;;;;;5066236;28;20058;-78
2022/10/31 12:22:38;;;;;;;22.77;10.80;;;;;;;;;;5062388;28;20029;-80
2022/10/31 12:25:10;;;;;;;22.88;10.15;;;;;;;;;;5069384;28;20044;-78
2022/10/31 12:27:55;;;;;;;24.65;10.82;;;;;;;;;;5049094;28;20041;-77
2022/10/31 12:30:24;;;;;;;26.88;12.23;;;;;;;;;;5067285;28;20029;-77
2022/10/31 12:33:06;;;;;;;24.88;11.50;;;;;;;;;;5051362;28;20465;-75
2022/10/31 12:35:41;;;;;;;23.77;10.48;;;;;;;;;;5064150;28;20029;-76
2022/10/31 12:38:10;;;;;;;25.42;11.45;;;;;;;;;;5058550;28;20120;-78
2022/10/31 12:40:49;;;;;;;24.33;13.63;;;;;;;;;;5058242;28;20044;-77
2022/10/31 12:43:34;;;;;;;28.33;11.93;;;;;;;;;;5039834;28;20040;-76
2022/10/31 12:46:00;;;;;;;;;;;;;;;;;;5055794;28;20033;-77
2022/10/31 12:48:35;;;;;;;26.92;12.18;;;;;;;;;;5056736;28;19909;-77
2022/10/31 12:51:13;;;;;;;30.73;12.95;;;;;;;;;;5055777;28;20024;-77
2022/10/31 12:53:59;;;;;;;29.52;13.00;;;;;;;;;;5057392;28;20060;-78
2022/10/31 12:56:42;;;;;;;26.02;11.73;;;;;;;;;;5042287;28;20032;-78
2022/10/31 12:59:18;;;;;;;22.92;13.50;;;;;;;;;;5063180;28;20035;-77
2022/10/31 13:01:50;;;;;;;22.17;12.35;;;;;;;;;;5061994;28;20083;-78
2022/10/31 13:04:42;;;;;;;21.63;11.70;;;;;;;;;;5057008;28;20100;-75
2022/10/31 13:07:12;;;;;;;27.48;13.02;;;;;;;;;;5072788;28;20135;-78
2022/10/31 13:09:45;;;;;;;26.40;13.07;;;;;;;;;;5059767;28;20081;-80
2022/10/31 13:12:13;;;;;;;27.58;14.00;;;;;;;;;;5048910;28;20032;-77
2022/10/31 13:14:54;;;;;;;44.70;22.92;;;;;;;;;;5057206;28;20025;-77
2022/10/31 13:17:24;;;;;;;47.15;29.20;;;;;;;;;;5055310;28;20025;-76
2022/10/31 13:19:52;;;;;;;48.00;28.52;;;;;;;;;;5040959;28;20442;-78
2022/10/31 13:22:26;;;;;;;60.33;32.25;;;;;;;;;;5060353;28;20040;-78
2022/10/31 13:25:10;;;;;;;49.97;30.13;;;;;;;;;;5062903;28;20064;-77
2022/10/31 13:27:44;;;;;;;56.53;31.15;;;;;;;;;;5042740;28;20032;-77
2022/10/31 13:30:18;;;;;;;54.72;32.83;;;;;;;;;;5062429;28;20147;-78
2022/10/31 13:32:47;;;;;;;50.85;30.92;;;;;;;;;;5061041;28;20025;-77
2022/10/31 13:35:17;;;;;;;54.55;29.50;;;;;;;;;;5058108;28;20048;-77
2022/10/31 13:37:47;;;;;;;50.97;28.75;;;;;;;;;;5060136;28;20100;-77
2022/10/31 13:40:31;;;;;;;54.42;30.48;;;;;;;;;;5069168;28;20478;-78
2022/10/31 13:43:06;;;;;;;52.08;29.08;;;;;;;;;;5065907;28;20401;-78
2022/10/31 13:45:32;;;;;;;;;;;;;;;;;;5041660;28;20059;-79
2022/10/31 13:48:17;;;;;;;42.75;25.10;;;;;;;;;;5059086;28;20357;-78
2022/10/31 13:50:54;;;;;;;46.78;26.48;;;;;;;;;;5061500;28;20082;-78
2022/10/31 13:53:21;;;;;;;46.38;27.85;;;;;;;;;;5043010;28;20021;-76
2022/10/31 13:55:49;;;;;;;57.22;27.95;;;;;;;;;;5062044;28;20036;-79
2022/10/31 13:58:20;;;;;;;49.22;26.90;;;;;;;;;;5061140;28;20033;-77
2022/10/31 14:00:46;;;;;;;54.80;28.45;;;;;;;;;;5061325;28;20033;-78
2022/10/31 14:03:20;;;;;;;62.55;32.03;;;;;;;;;;5062408;28;20029;-77
2022/10/31 14:05:52;;;;;;;57.88;32.00;;;;;;;;;;5065941;28;20067;-78
2022/10/31 14:08:20;;;;;;;59.78;31.80;;;;;;;;;;5045623;28;20097;-77
2022/10/31 14:10:54;;;;;;;66.05;32.50;;;;;;;;;;5067883;28;20017;-77
2022/10/31 14:13:26;;;;;;;65.33;32.27;;;;;;;;;;5069442;28;20025;-77
2022/10/31 14:15:57;;;;;;;56.70;31.77;;;;;;;;;;5066410;28;20286;-78
2022/10/31 14:18:24;;;;;;;57.22;32.20;;;;;;;;;;5039380;28;20542;-77
2022/10/31 14:20:50;;;;;;;60.55;32.00;;;;;;;;;;5057418;28;20040;-77
2022/10/31 14:23:28;;;;;;;56.42;31.02;;;;;;;;;;5056468;28;20529;-78
2022/10/31 14:26:06;;;;;;;67.75;33.55;;;;;;;;;;5060855;28;20073;-78
2022/10/31 14:28:33;;;;;;;66.88;35.60;;;;;;;;;;5055830;28;20465;-77
2022/10/31 14:31:00;;;;;;;59.75;32.08;;;;;;;;;;5056128;28;20021;-77
2022/10/31 14:33:28;;;;;;;57.38;33.10;;;;;;;;;;5037961;28;20040;-78